Time;durP1;ratioP1;P1;durP2;ratioP2;P2;SDS_P1;SDS_P2;PMS_P1;PMS_P2;Temp;Humidity;BMP_temperature;BMP_pressure;BME280_temperature;BME280_humidity;BME280_pressure;Samples;Min_cycle;Max_cycle;Signal;HPM_P1;HPM_P2
2022/03/21 00:01:18;;;;;;;80.00;51.60;;;3.20;89.70;;;;;;5094190;28;20040;-79
2022/03/21 00:03:44;;;;;;;72.85;49.72;;;3.10;89.70;;;;;;5094035;28;20048;-79
2022/03/21 00:06:10;;;;;;;72.47;49.65;;;3.10;89.70;;;;;;5093951;28;20077;-79
2022/03/21 00:08:36;;;;;;;70.65;48.40;;;3.10;89.70;;;;;;5093984;28;20337;-78
2022/03/21 00:11:14;;;;;;;71.80;48.17;;;3.10;89.80;;;;;;5094031;28;20079;-79
2022/03/21 00:13:40;;;;;;;72.20;48.42;;;3.10;89.70;;;;;;5077720;28;20381;-79
2022/03/21 00:16:05;;;;;;;69.07;46.67;;;3.10;89.70;;;;;;5094009;28;20069;-79
2022/03/21 00:18:32;;;;;;;65.13;45.97;;;3.10;89.80;;;;;;5093680;28;20560;-79
2022/03/21 00:21:00;;;;;;;77.90;50.95;;;3.10;89.80;;;;;;5060522;28;20036;-79
2022/03/21 00:23:42;;;;;;;83.75;53.35;;;3.10;89.90;;;;;;5076811;28;20052;-79
2022/03/21 00:26:07;;;;;;;78.80;50.13;;;3.10;89.80;;;;;;5093706;28;20127;-79
2022/03/21 00:28:33;;;;;;;70.50;46.95;;;3.10;90.00;;;;;;5093717;28;20158;-79
2022/03/21 00:30:59;;;;;;;72.97;48.47;;;3.10;90.00;;;;;;5093738;28;20043;-79
2022/03/21 00:33:25;;;;;;;69.50;45.88;;;3.20;89.70;;;;;;5093401;28;20601;-79
2022/03/21 00:35:50;;;;;;;73.15;50.20;;;3.20;90.30;;;;;;5076575;28;20039;-79
2022/03/21 00:38:18;;;;;;;70.63;47.42;;;3.30;90.20;;;;;;5093447;28;20119;-79
2022/03/21 00:40:45;;;;;;;68.72;45.28;;;3.20;90.30;;;;;;5076412;28;20075;-79
2022/03/21 00:43:14;;;;;;;77.72;52.33;;;3.20;90.00;;;;;;5093370;28;20093;-79
2022/03/21 00:45:39;;;;;;;73.00;46.05;;;3.30;89.80;;;;;;5076326;28;20093;-79
2022/03/21 00:48:05;;;;;;;79.13;52.28;;;3.20;89.90;;;;;;5093292;28;20043;-79
2022/03/21 00:50:31;;;;;;;71.65;50.97;;;3.20;90.20;;;;;;5093197;28;20043;-79
2022/03/21 00:52:57;;;;;;;79.35;52.47;;;3.20;90.00;;;;;;5059982;28;20090;-79
2022/03/21 00:55:26;;;;;;;66.97;46.88;;;3.10;90.30;;;;;;5092934;28;20472;-79
2022/03/21 00:57:52;;;;;;;75.68;49.97;;;3.00;90.30;;;;;;5093041;28;20488;-79
2022/03/21 01:00:21;;;;;;;75.85;50.53;;;3.00;90.10;;;;;;5075052;28;20488;-79
2022/03/21 01:02:47;;;;;;;75.78;50.47;;;3.00;90.20;;;;;;5092893;28;20488;-79
2022/03/21 01:05:13;;;;;;;74.57;50.70;;;3.00;90.20;;;;;;5092863;28;20395;-79
2022/03/21 01:07:40;;;;;;;73.05;50.13;;;2.90;90.20;;;;;;5093032;28;20047;-79
2022/03/21 01:10:08;;;;;;;61.20;43.55;;;2.90;90.00;;;;;;5093068;28;20047;-79
2022/03/21 01:12:33;;;;;;;69.28;47.47;;;2.80;89.90;;;;;;5076306;28;20442;-79
2022/03/21 01:15:01;;;;;;;74.82;50.25;;;2.80;90.10;;;;;;5075682;28;20040;-79
2022/03/21 01:17:27;;;;;;;74.38;50.00;;;2.90;90.00;;;;;;5092577;28;20040;-79
2022/03/21 01:19:53;;;;;;;65.43;44.67;;;2.90;90.10;;;;;;5092723;28;20047;-79
2022/03/21 01:22:19;;;;;;;78.20;51.90;;;2.90;90.00;;;;;;5092518;28;20056;-79
2022/03/21 01:24:45;;;;;;;63.38;44.45;;;2.80;90.00;;;;;;5092552;28;20056;-79
2022/03/21 01:27:11;;;;;;;73.85;49.78;;;2.80;90.20;;;;;;5092833;28;20373;-79
2022/03/21 01:29:37;;;;;;;76.13;50.78;;;2.80;90.30;;;;;;5092458;28;20165;-79
2022/03/21 01:32:03;;;;;;;77.90;52.28;;;2.90;90.30;;;;;;5092438;28;20039;-79
2022/03/21 01:34:29;;;;;;;70.43;47.20;;;2.90;90.50;;;;;;5092285;28;20485;-79
2022/03/21 01:36:55;;;;;;;76.45;50.60;;;2.90;90.60;;;;;;5092314;28;20040;-79
2022/03/21 01:39:21;;;;;;;78.63;51.40;;;2.90;90.60;;;;;;5092606;28;20089;-80
2022/03/21 01:41:47;;;;;;;71.32;48.28;;;2.80;90.80;;;;;;5092314;28;20484;-79
2022/03/21 01:44:14;;;;;;;73.20;48.20;;;2.70;90.80;;;;;;5092538;28;20158;-79
2022/03/21 01:46:41;;;;;;;80.47;52.63;;;2.70;90.60;;;;;;5075564;28;20044;-79
2022/03/21 01:49:08;;;;;;;71.40;47.92;;;2.60;90.50;;;;;;5075402;28;20527;-79
2022/03/21 01:51:37;;;;;;;82.30;53.15;;;2.60;90.40;;;;;;5092416;28;20038;-79
2022/03/21 01:56:49;;;;;;;80.05;52.08;;;2.60;90.90;;;;;;5091924;28;20123;-79
2022/03/21 01:59:16;;;;;;;91.05;53.03;;;2.60;91.10;;;;;;5092002;28;20036;-79
2022/03/21 02:01:42;;;;;;;75.20;49.83;;;2.60;91.20;;;;;;5091938;28;20097;-79
2022/03/21 02:04:09;;;;;;;73.35;49.72;;;2.50;91.10;;;;;;5091870;28;20078;-79
2022/03/21 02:06:35;;;;;;;77.72;50.78;;;2.50;91.00;;;;;;5091785;28;20537;-80
2022/03/21 02:09:04;;;;;;;75.95;48.55;;;2.50;90.80;;;;;;5092107;28;20039;-80
2022/03/21 02:11:30;;;;;;;74.72;50.33;;;2.50;90.70;;;;;;5091617;28;20507;-79
2022/03/21 02:13:58;;;;;;;67.07;46.53;;;2.50;91.00;;;;;;5092018;28;20040;-79
2022/03/21 02:16:26;;;;;;;79.22;52.55;;;2.50;90.60;;;;;;5091707;28;20071;-79
2022/03/21 02:18:53;;;;;;;84.20;54.42;;;2.50;90.80;;;;;;5091701;28;20130;-79
2022/03/21 02:21:51;;;;;;;71.90;47.65;;;2.50;90.60;;;;;;5091595;28;20511;-79
2022/03/21 02:24:39;;;;;;;77.60;52.15;;;2.40;90.50;;;;;;5057862;28;20052;-79
2022/03/21 02:27:07;;;;;;;73.32;48.67;;;2.40;91.00;;;;;;5074978;28;20377;-79
2022/03/21 02:29:34;;;;;;;81.63;53.30;;;2.40;90.80;;;;;;5091651;28;20079;-79
2022/03/21 02:32:00;;;;;;;67.50;44.40;;;2.40;91.10;;;;;;5091870;28;20047;-79
2022/03/21 02:34:29;;;;;;;88.38;55.05;;;2.30;91.10;;;;;;5074781;28;20040;-79
2022/03/21 02:37:00;;;;;;;70.65;46.78;;;2.30;91.20;;;;;;5041849;28;20032;-79
2022/03/21 02:39:29;;;;;;;79.35;51.47;;;2.30;91.20;;;;;;5091620;28;20173;-79
2022/03/21 02:41:55;;;;;;;78.95;53.67;;;2.30;91.00;;;;;;5074801;28;20040;-79
2022/03/21 02:44:21;;;;;;;77.88;51.83;;;2.20;91.30;;;;;;5057985;28;20036;-80
2022/03/21 02:46:47;;;;;;;85.05;54.45;;;2.30;90.90;;;;;;5091489;28;20047;-79
2022/03/21 02:49:16;;;;;;;78.00;52.78;;;2.20;91.80;;;;;;5074878;28;20069;-79
2022/03/21 02:51:43;;;;;;;79.63;52.63;;;2.30;91.70;;;;;;5074729;28;20040;-79
2022/03/21 02:54:10;;;;;;;71.10;46.22;;;2.20;91.10;;;;;;5091412;28;20048;-79
2022/03/21 02:56:36;;;;;;;85.00;54.17;;;2.30;91.40;;;;;;5074782;28;20082;-80
2022/03/21 02:59:03;;;;;;;83.35;55.10;;;2.20;91.60;;;;;;5091336;28;20071;-79
2022/03/21 03:01:31;;;;;;;86.88;55.53;;;2.20;91.60;;;;;;5075209;28;20387;-79
2022/03/21 03:03:57;;;;;;;87.47;57.67;;;2.20;91.90;;;;;;5074416;28;20044;-79
2022/03/21 03:06:22;;;;;;;77.95;52.42;;;2.20;92.10;;;;;;5074491;28;20050;-79
2022/03/21 03:08:48;;;;;;;84.95;55.03;;;2.20;91.60;;;;;;5091264;28;20051;-80
2022/03/21 03:11:14;;;;;;;74.95;49.33;;;2.20;91.50;;;;;;5091511;28;20043;-80
2022/03/21 03:13:39;;;;;;;78.22;49.67;;;2.20;91.30;;;;;;5074282;28;20039;-79
2022/03/21 03:16:06;;;;;;;86.22;55.22;;;2.30;91.10;;;;;;5074595;28;20029;-80
2022/03/21 03:18:32;;;;;;;77.05;50.28;;;2.20;91.30;;;;;;5091479;28;20040;-79
2022/03/21 03:20:59;;;;;;;88.55;55.08;;;2.30;91.00;;;;;;5074461;28;20036;-79
2022/03/21 03:23:26;;;;;;;74.32;51.35;;;2.30;90.80;;;;;;5091583;28;20044;-79
2022/03/21 03:26:01;;;;;;;76.32;48.70;;;2.20;90.40;;;;;;5078289;28;20466;-79
2022/03/21 03:28:27;;;;;;;74.40;48.28;;;2.20;90.50;;;;;;5094815;28;20043;-80
2022/03/21 03:30:54;;;;;;;75.97;50.70;;;2.20;90.60;;;;;;5094611;28;20043;-79
2022/03/21 03:33:20;;;;;;;79.53;52.88;;;2.20;90.70;;;;;;5094907;28;20071;-79
2022/03/21 03:35:46;;;;;;;75.80;51.92;;;2.20;90.50;;;;;;5077789;28;20101;-80
2022/03/21 03:38:12;;;;;;;81.63;54.45;;;2.20;90.50;;;;;;5077769;28;20098;-79
2022/03/21 03:40:38;;;;;;;72.45;48.50;;;2.10;90.60;;;;;;5077633;28;20119;-80
2022/03/21 03:43:04;;;;;;;75.15;49.42;;;2.20;90.50;;;;;;5077904;28;20079;-78
2022/03/21 03:45:30;;;;;;;82.97;53.33;;;2.10;90.60;;;;;;5094646;28;20127;-78
2022/03/21 03:47:55;;;;;;;74.72;49.53;;;2.10;90.60;;;;;;5094471;28;20479;-78
2022/03/21 03:50:21;;;;;;;83.90;54.85;;;2.10;90.50;;;;;;5077796;28;20043;-78
2022/03/21 03:52:47;;;;;;;81.28;53.92;;;2.10;90.60;;;;;;5094295;28;20039;-78
2022/03/21 03:55:14;;;;;;;70.25;48.60;;;2.10;90.60;;;;;;5094184;28;20036;-78
2022/03/21 03:57:40;;;;;;;83.82;55.03;;;2.10;90.50;;;;;;5077489;28;20115;-78
2022/03/21 04:00:08;;;;;;;73.25;49.65;;;2.10;90.70;;;;;;5094458;28;20036;-78
2022/03/21 04:03:44;;;;;;;70.07;46.08;;;2.10;90.70;;;;;;5077535;28;20040;-78
2022/03/21 04:05:21;;;;;;;70.30;47.95;;;2.10;90.60;;;;;;5093814;28;20040;-78
2022/03/21 04:07:48;;;;;;;72.90;48.83;;;2.10;90.50;;;;;;5094249;28;20122;-78
2022/03/21 04:10:14;;;;;;;69.45;46.70;;;2.10;90.80;;;;;;5094274;28;20040;-78
2022/03/21 04:12:40;;;;;;;76.55;51.05;;;2.10;90.70;;;;;;5094256;28;20499;-78
2022/03/21 04:15:07;;;;;;;80.50;53.05;;;2.10;90.70;;;;;;5093867;28;20440;-78
2022/03/21 04:17:35;;;;;;;77.18;51.60;;;2.10;90.50;;;;;;5094063;28;20100;-78
2022/03/21 04:20:02;;;;;;;75.90;49.17;;;2.10;90.60;;;;;;5094019;28;20384;-78
2022/03/21 04:22:28;;;;;;;80.82;52.55;;;2.10;90.60;;;;;;5076988;28;20052;-78
2022/03/21 04:24:54;;;;;;;87.95;56.72;;;2.10;90.50;;;;;;5093727;28;20616;-78
2022/03/21 04:27:20;;;;;;;88.15;55.20;;;2.10;90.70;;;;;;5093673;28;20048;-78
2022/03/21 04:29:45;;;;;;;87.35;54.90;;;2.10;90.80;;;;;;5060248;28;20388;-78
2022/03/21 04:32:11;;;;;;;82.45;53.30;;;2.10;91.10;;;;;;5076647;28;20122;-77
2022/03/21 04:34:37;;;;;;;88.95;57.40;;;2.10;91.10;;;;;;5076464;28;20035;-78
2022/03/21 04:37:03;;;;;;;87.50;55.28;;;2.10;90.80;;;;;;5076531;28;20113;-78
2022/03/21 04:39:28;;;;;;;91.22;57.88;;;2.10;90.70;;;;;;5093486;28;20040;-78
2022/03/21 04:41:54;;;;;;;96.93;59.80;;;2.10;90.70;;;;;;5076529;28;20218;-78
2022/03/21 04:44:20;;;;;;;72.10;50.85;;;2.10;90.90;;;;;;5076488;28;20044;-78
2022/03/21 04:46:45;;;;;;;93.75;58.35;;;2.10;91.10;;;;;;5076325;28;20074;-78
2022/03/21 04:49:11;;;;;;;83.20;53.47;;;2.10;90.90;;;;;;5093158;28;20043;-78
2022/03/21 04:51:37;;;;;;;91.15;56.33;;;2.10;90.90;;;;;;5076451;28;20044;-79
2022/03/21 04:54:03;;;;;;;73.85;48.88;;;2.10;90.90;;;;;;5076204;28;20036;-78
2022/03/21 04:56:29;;;;;;;84.50;54.45;;;2.10;91.30;;;;;;5059731;28;20036;-78
2022/03/21 04:58:54;;;;;;;91.15;58.63;;;2.10;91.20;;;;;;5059904;28;20078;-78
2022/03/21 05:01:20;;;;;;;88.57;56.28;;;2.10;91.50;;;;;;5093032;28;20484;-78
2022/03/21 05:03:46;;;;;;;96.97;59.50;;;2.10;91.40;;;;;;5076284;28;20067;-78
2022/03/21 05:06:12;;;;;;;104.45;63.58;;;2.10;91.30;;;;;;5075909;28;20453;-78
2022/03/21 05:08:38;;;;;;;84.13;52.22;;;2.10;90.90;;;;;;5059381;28;20100;-78
2022/03/21 05:11:04;;;;;;;87.22;54.65;;;2.10;91.20;;;;;;5092871;28;20123;-78
2022/03/21 05:13:30;;;;;;;97.95;58.75;;;2.10;91.50;;;;;;5059134;28;20181;-79
2022/03/21 05:15:55;;;;;;;83.85;54.13;;;2.10;91.60;;;;;;5092607;28;20051;-78
2022/03/21 05:18:22;;;;;;;87.95;56.42;;;2.10;91.80;;;;;;5092724;28;20543;-77
2022/03/21 05:20:48;;;;;;;89.38;56.28;;;2.10;92.00;;;;;;5092646;28;20515;-78
2022/03/21 05:31:27;;;;;;;;;;;2.10;91.80;;;;;;5092831;28;20050;-78
2022/03/21 05:36:36;;;;;;;89.97;55.50;;;2.10;91.80;;;;;;5091938;28;20083;-78
2022/03/21 05:39:03;;;;;;;91.45;57.13;;;2.10;92.30;;;;;;5091938;28;20396;-77
2022/03/21 05:41:29;;;;;;;91.32;56.22;;;2.10;92.30;;;;;;5092021;28;20121;-78
2022/03/21 05:43:55;;;;;;;94.28;59.35;;;2.10;92.00;;;;;;5092173;28;20075;-78
2022/03/21 05:46:21;;;;;;;90.70;56.05;;;2.10;92.60;;;;;;5091637;28;20036;-79
2022/03/21 05:48:50;;;;;;;86.50;53.47;;;2.10;92.80;;;;;;5092143;28;20484;-78
2022/03/21 05:51:22;;;;;;;86.32;53.83;;;2.10;92.40;;;;;;5091990;28;20088;-78
2022/03/21 05:53:49;;;;;;;88.55;54.78;;;2.10;92.50;;;;;;5092202;28;20415;-78
2022/03/21 05:56:15;;;;;;;79.10;50.20;;;2.10;92.80;;;;;;5091917;28;20043;-79
2022/03/21 05:58:42;;;;;;;74.45;48.63;;;2.10;92.40;;;;;;5091961;28;20035;-78
2022/03/21 06:01:10;;;;;;;84.70;52.65;;;2.10;92.70;;;;;;5075161;28;20119;-78
2022/03/21 06:03:36;;;;;;;78.32;49.65;;;2.20;92.80;;;;;;5091992;28;20114;-78
2022/03/21 06:06:02;;;;;;;81.13;50.45;;;2.10;92.80;;;;;;5092059;28;20062;-78
2022/03/21 06:08:33;;;;;;;81.18;51.00;;;2.20;92.40;;;;;;5092108;28;20040;-78
2022/03/21 06:11:05;;;;;;;92.18;56.33;;;2.20;92.70;;;;;;5091907;28;20071;-78
2022/03/21 06:13:36;;;;;;;79.43;51.88;;;2.20;92.70;;;;;;5075306;28;20079;-78
2022/03/21 06:16:04;;;;;;;84.78;54.60;;;2.20;92.40;;;;;;5091748;28;20067;-78
2022/03/21 06:18:31;;;;;;;86.32;54.67;;;2.20;92.20;;;;;;5075232;28;20036;-78
2022/03/21 06:21:00;;;;;;;72.45;47.83;;;2.30;92.20;;;;;;5075182;28;20405;-78
2022/03/21 06:23:27;;;;;;;88.00;54.97;;;2.30;92.00;;;;;;5074642;28;20056;-78
2022/03/21 06:25:53;;;;;;;87.43;52.75;;;2.40;92.20;;;;;;5091837;28;20040;-78
2022/03/21 06:28:23;;;;;;;86.80;57.20;;;2.40;92.20;;;;;;5091926;28;20040;-78
2022/03/21 06:30:58;;;;;;;97.45;59.30;;;2.50;92.00;;;;;;5091908;28;20100;-78
2022/03/21 06:33:26;;;;;;;87.20;54.55;;;2.50;92.30;;;;;;5091898;28;20444;-77
2022/03/21 06:35:52;;;;;;;97.72;59.72;;;2.60;92.20;;;;;;5074487;28;20086;-78
2022/03/21 06:38:18;;;;;;;87.78;55.85;;;2.60;92.20;;;;;;5074963;28;20040;-77
2022/03/21 06:40:44;;;;;;;81.97;54.28;;;2.60;92.30;;;;;;5091523;28;20419;-78
2022/03/21 06:43:11;;;;;;;86.90;56.00;;;2.70;92.30;;;;;;5091813;28;20040;-77
2022/03/21 06:45:37;;;;;;;68.35;46.40;;;2.70;92.30;;;;;;5091505;28;20130;-78
2022/03/21 06:48:03;;;;;;;86.57;54.95;;;2.70;92.40;;;;;;5091719;28;20384;-80
2022/03/21 06:50:31;;;;;;;83.82;53.05;;;2.80;92.40;;;;;;5056650;28;20248;-80
2022/03/21 06:52:57;;;;;;;87.32;54.47;;;2.80;92.30;;;;;;5061301;28;20412;-80
2022/03/21 06:55:23;;;;;;;87.85;53.15;;;2.80;92.60;;;;;;5059905;28;20040;-80
2022/03/21 06:57:49;;;;;;;83.63;51.67;;;2.80;92.50;;;;;;5078544;28;20095;-80
2022/03/21 07:00:15;;;;;;;83.47;51.97;;;2.90;92.40;;;;;;5060183;28;20033;-80
2022/03/21 07:02:41;;;;;;;90.90;55.30;;;2.90;92.50;;;;;;5078272;28;20032;-80
2022/03/21 07:05:07;;;;;;;81.20;52.47;;;3.00;92.40;;;;;;5077186;28;20039;-81
2022/03/21 07:07:34;;;;;;;83.75;52.90;;;3.00;92.20;;;;;;5064293;28;20480;-81
2022/03/21 07:10:00;;;;;;;81.80;50.55;;;3.00;92.20;;;;;;5057099;28;20052;-79
2022/03/21 07:12:26;;;;;;;80.60;50.45;;;3.00;92.20;;;;;;5082017;28;20407;-79
2022/03/21 07:14:52;;;;;;;81.78;49.88;;;3.10;92.20;;;;;;5062090;28;20048;-80
2022/03/21 07:17:19;;;;;;;84.03;52.55;;;3.10;92.20;;;;;;5069307;28;20117;-79
2022/03/21 07:19:45;;;;;;;82.03;54.28;;;3.10;92.10;;;;;;5068689;28;20076;-78
2022/03/21 07:22:11;;;;;;;79.38;51.85;;;3.10;92.20;;;;;;5067178;28;20096;-78
2022/03/21 07:24:37;;;;;;;78.78;50.80;;;3.20;92.20;;;;;;5070277;28;20055;-78
2022/03/21 07:27:04;;;;;;;74.55;50.50;;;3.20;92.20;;;;;;5069005;28;20055;-79
2022/03/21 07:29:29;;;;;;;82.03;50.75;;;3.30;91.90;;;;;;5037363;28;20044;-78
2022/03/21 07:31:56;;;;;;;79.60;52.92;;;3.30;91.90;;;;;;5055758;28;20048;-78
2022/03/21 07:34:22;;;;;;;72.38;47.70;;;3.40;91.80;;;;;;5071252;28;20052;-78
2022/03/21 07:36:50;;;;;;;63.88;43.17;;;3.40;91.80;;;;;;5069425;28;20305;-78
2022/03/21 07:39:16;;;;;;;71.93;47.13;;;3.50;91.40;;;;;;5070270;28;20087;-78
2022/03/21 07:41:42;;;;;;;72.05;46.30;;;3.50;91.60;;;;;;5070536;28;20412;-78
2022/03/21 07:44:08;;;;;;;67.18;44.85;;;3.60;91.80;;;;;;5061002;28;20043;-78
2022/03/21 07:49:18;;;;;;;60.97;43.03;;;3.70;91.70;;;;;;5079421;28;20129;-78
2022/03/21 07:51:44;;;;;;;67.40;46.63;;;3.80;91.50;;;;;;5077531;28;20489;-78
2022/03/21 07:54:11;;;;;;;64.28;44.13;;;3.90;91.50;;;;;;5058025;28;20472;-79
2022/03/21 07:56:39;;;;;;;66.15;44.83;;;4.00;91.50;;;;;;5069915;28;20417;-78
2022/03/21 07:59:05;;;;;;;67.80;45.58;;;4.10;91.40;;;;;;5079125;28;20087;-79
2022/03/21 08:01:31;;;;;;;71.68;47.80;;;4.30;91.90;;;;;;5079703;28;20032;-79
2022/03/21 08:03:59;;;;;;;62.05;42.95;;;4.40;91.90;;;;;;5080929;28;20116;-77
2022/03/21 08:06:24;;;;;;;67.45;44.88;;;4.60;91.20;;;;;;5072969;28;20126;-77
2022/03/21 08:08:50;;;;;;;61.65;42.10;;;4.70;91.90;;;;;;5062118;28;20149;-78
2022/03/21 08:11:17;;;;;;;65.43;43.08;;;4.80;91.60;;;;;;5080765;28;20040;-79
2022/03/21 08:13:43;;;;;;;59.70;41.03;;;4.90;91.40;;;;;;5058439;28;20044;-78
2022/03/21 08:16:09;;;;;;;56.75;40.83;;;5.10;91.70;;;;;;5072835;28;20098;-78
2022/03/21 08:18:37;;;;;;;55.50;39.25;;;5.30;91.60;;;;;;5075214;28;20086;-79
2022/03/21 08:21:03;;;;;;;56.67;39.47;;;5.40;91.30;;;;;;5059402;28;20049;-78
2022/03/21 08:23:29;;;;;;;54.42;38.67;;;5.50;90.90;;;;;;5060027;28;20111;-79
2022/03/21 08:25:58;;;;;;;57.47;37.58;;;5.70;91.40;;;;;;5056935;28;20041;-78
2022/03/21 08:28:25;;;;;;;53.28;37.38;;;5.90;90.90;;;;;;5073669;28;20124;-78
2022/03/21 08:30:51;;;;;;;52.25;35.70;;;6.10;90.80;;;;;;5073849;28;20451;-78
2022/03/21 08:33:17;;;;;;;46.88;32.05;;;6.20;90.50;;;;;;5061185;28;20892;-79
2022/03/21 08:35:43;;;;;;;45.63;31.73;;;6.30;89.70;;;;;;5058113;28;20135;-78
2022/03/21 08:38:09;;;;;;;49.83;33.67;;;6.50;88.60;;;;;;5078979;28;20381;-78
2022/03/21 08:40:36;;;;;;;45.65;30.98;;;6.60;88.90;;;;;;5080296;28;21363;-78
2022/03/21 08:43:03;;;;;;;47.00;31.25;;;6.70;88.80;;;;;;5061110;28;20036;-79
2022/03/21 08:45:29;;;;;;;42.47;29.98;;;6.90;88.50;;;;;;5077584;28;20047;-78
2022/03/21 08:47:54;;;;;;;41.80;29.40;;;7.00;87.10;;;;;;5072824;28;20400;-78
2022/03/21 08:50:21;;;;;;;38.40;26.35;;;7.10;87.60;;;;;;5063328;28;20516;-79
2022/03/21 08:52:46;;;;;;;37.83;27.05;;;7.30;87.30;;;;;;5075997;28;20386;-79
2022/03/21 08:55:13;;;;;;;34.65;25.67;;;7.40;86.60;;;;;;5059325;28;20097;-79
2022/03/21 08:57:39;;;;;;;36.90;25.00;;;7.60;86.40;;;;;;5054682;28;20040;-79
2022/03/21 09:00:10;;;;;;;35.70;24.75;;;7.80;85.30;;;;;;5040434;28;20514;-79
2022/03/21 09:02:36;;;;;;;40.95;25.92;;;8.00;85.70;;;;;;5071922;28;20106;-79
2022/03/21 09:05:04;;;;;;;42.35;26.38;;;8.20;83.90;;;;;;5074183;28;20048;-79
2022/03/21 09:07:30;;;;;;;41.53;26.45;;;8.30;83.60;;;;;;5069699;28;20484;-79
2022/03/21 09:09:56;;;;;;;41.55;28.80;;;8.40;80.60;;;;;;5055448;28;20037;-80
2022/03/21 09:12:21;;;;;;;40.55;27.48;;;8.50;82.60;;;;;;5076537;28;20040;-79
2022/03/21 09:14:47;;;;;;;42.47;28.30;;;8.70;82.70;;;;;;5062473;28;20055;-79
2022/03/21 09:17:13;;;;;;;39.28;27.38;;;8.80;81.80;;;;;;5070704;28;20386;-79
2022/03/21 09:19:40;;;;;;;39.95;27.25;;;9.00;80.70;;;;;;5062906;28;20097;-80
2022/03/21 09:22:07;;;;;;;45.50;29.92;;;9.10;81.10;;;;;;5078911;28;20142;-80
2022/03/21 09:24:33;;;;;;;39.78;28.10;;;9.20;81.30;;;;;;5044178;28;20473;-79
2022/03/21 09:26:59;;;;;;;42.90;27.02;;;9.30;80.50;;;;;;5072305;28;20047;-80
2022/03/21 09:29:25;;;;;;;43.70;28.17;;;9.50;78.30;;;;;;5077358;28;20050;-81
2022/03/21 09:31:51;;;;;;;45.25;28.73;;;9.60;79.80;;;;;;5061539;28;20039;-80
2022/03/21 09:34:17;;;;;;;45.35;29.75;;;9.70;75.90;;;;;;5064054;28;20059;-79
2022/03/21 09:36:44;;;;;;;41.92;28.02;;;9.80;77.40;;;;;;5075240;28;20039;-80
2022/03/21 09:39:12;;;;;;;45.90;31.83;;;10.00;77.20;;;;;;5078871;28;20036;-81
2022/03/21 09:41:38;;;;;;;47.83;30.30;;;10.10;77.00;;;;;;5078524;28;20960;-80
2022/03/21 09:44:10;;;;;;;48.25;32.25;;;10.30;75.60;;;;;;5079894;28;20517;-80
2022/03/21 09:46:38;;;;;;;46.50;31.27;;;10.30;75.60;;;;;;5070178;28;20044;-81
2022/03/21 09:49:07;;;;;;;49.25;33.13;;;10.40;75.80;;;;;;5076830;28;20051;-80
2022/03/21 09:51:33;;;;;;;57.88;34.90;;;10.60;75.20;;;;;;5078314;28;20044;-80
2022/03/21 09:54:00;;;;;;;53.47;35.13;;;10.70;75.80;;;;;;5061635;28;20039;-80
2022/03/21 09:56:27;;;;;;;60.67;36.47;;;10.80;74.20;;;;;;5056539;28;20035;-80
2022/03/21 09:58:59;;;;;;;63.22;38.53;;;10.80;72.00;;;;;;5075781;28;20442;-80
2022/03/21 10:01:26;;;;;;;60.63;36.92;;;10.80;72.40;;;;;;5058987;28;20051;-80
2022/03/21 10:03:52;;;;;;;58.60;36.13;;;10.90;70.90;;;;;;5061499;28;20153;-80
2022/03/21 10:06:27;;;;;;;73.50;40.22;;;11.00;69.70;;;;;;5042921;28;20166;-80
2022/03/21 10:09:13;;;;;;;55.85;35.15;;;11.10;71.10;;;;;;5063365;28;20042;-80
2022/03/21 10:11:48;;;;;;;73.13;39.30;;;11.30;68.10;;;;;;5058216;28;20079;-80
2022/03/21 10:14:36;;;;;;;64.32;39.40;;;11.40;67.00;;;;;;5077364;28;20140;-80
2022/03/21 10:17:07;;;;;;;69.15;42.42;;;11.50;68.30;;;;;;5060116;28;20055;-80
2022/03/21 10:19:52;;;;;;;68.88;41.28;;;11.70;67.20;;;;;;5074653;28;20108;-79
2022/03/21 10:22:33;;;;;;;64.43;40.42;;;11.80;64.80;;;;;;5095109;28;20091;-80
2022/03/21 10:25:12;;;;;;;74.05;45.40;;;12.00;66.80;;;;;;5095187;28;20084;-80
2022/03/21 10:27:43;;;;;;;79.43;46.42;;;12.00;65.20;;;;;;5078131;28;20051;-80
2022/03/21 10:30:21;;;;;;;71.95;44.17;;;12.10;66.00;;;;;;5095168;28;20074;-80
2022/03/21 10:32:58;;;;;;;70.75;43.50;;;12.20;65.80;;;;;;5079737;28;20076;-80
2022/03/21 10:35:29;;;;;;;74.45;47.72;;;12.30;63.30;;;;;;5082286;28;20426;-80
2022/03/21 10:38:01;;;;;;;73.13;47.78;;;12.40;62.10;;;;;;5099249;28;20094;-80
2022/03/21 10:40:34;;;;;;;75.57;46.75;;;12.60;63.30;;;;;;5082600;28;20023;-80
2022/03/21 10:43:07;;;;;;;75.75;46.08;;;12.70;60.00;;;;;;5099141;28;20491;-79
2022/03/21 10:45:38;;;;;;;72.43;43.80;;;12.90;59.80;;;;;;5099004;28;20495;-80
2022/03/21 10:48:06;;;;;;;65.15;43.20;;;13.00;60.10;;;;;;5098952;28;20100;-80
2022/03/21 10:50:41;;;;;;;64.43;40.30;;;13.00;59.50;;;;;;5099198;28;20437;-80
2022/03/21 10:53:09;;;;;;;;;;;13.00;56.20;;;;;;5082631;28;20046;-80
2022/03/21 10:55:36;;;;;;;63.50;40.08;;;13.00;56.10;;;;;;5098658;28;20367;-80
2022/03/21 10:58:03;;;;;;;60.05;38.10;;;13.30;57.30;;;;;;5099101;28;20154;-80
2022/03/21 11:00:29;;;;;;;28.02;18.92;;;13.30;52.70;;;;;;5099052;28;20031;-80
2022/03/21 11:02:56;;;;;;;23.35;16.92;;;13.40;45.00;;;;;;5081998;28;20053;-80
2022/03/21 11:05:23;;;;;;;25.38;17.15;;;13.40;47.90;;;;;;5081740;28;20070;-80
2022/03/21 11:07:50;;;;;;;27.48;20.70;;;13.50;47.50;;;;;;5082133;28;20387;-80
2022/03/21 11:10:18;;;;;;;24.08;17.70;;;13.60;45.70;;;;;;5098677;28;20040;-80
2022/03/21 11:12:45;;;;;;;27.90;19.33;;;13.70;48.40;;;;;;5081831;28;20054;-80
2022/03/21 11:15:12;;;;;;;25.40;18.83;;;13.80;47.00;;;;;;5098565;28;20399;-80
2022/03/21 11:17:40;;;;;;;25.50;17.15;;;14.00;48.40;;;;;;5065164;28;20492;-79
2022/03/21 11:20:07;;;;;;;21.30;16.77;;;14.00;45.60;;;;;;5098461;28;20487;-80
2022/03/21 11:22:34;;;;;;;20.35;13.63;;;14.10;46.40;;;;;;5081543;28;20051;-80
2022/03/21 11:25:05;;;;;;;19.80;14.63;;;14.10;44.50;;;;;;5081717;28;20101;-80
2022/03/21 11:27:59;;;;;;;19.27;14.73;;;14.20;44.90;;;;;;5098204;28;20082;-80
2022/03/21 11:30:45;;;;;;;21.52;15.70;;;14.40;42.40;;;;;;5098247;28;20040;-80
2022/03/21 11:33:29;;;;;;;19.95;14.63;;;14.40;42.50;;;;;;5098428;28;20104;-80
2022/03/21 11:36:22;;;;;;;25.03;16.20;;;14.50;42.30;;;;;;5098046;28;20400;-80
2022/03/21 11:38:48;;;;;;;21.52;17.23;;;14.60;43.90;;;;;;5094680;28;20283;-80
2022/03/21 11:41:18;;;;;;;22.83;17.65;;;14.70;45.20;;;;;;5098047;28;20043;-80
2022/03/21 11:44:14;;;;;;;25.23;18.83;;;14.60;44.60;;;;;;5097659;28;20046;-80
2022/03/21 11:46:42;;;;;;;23.23;18.02;;;14.70;43.70;;;;;;5098161;28;20050;-80
2022/03/21 11:49:20;;;;;;;21.05;13.98;;;14.90;45.20;;;;;;5081053;28;20043;-80
2022/03/21 11:52:00;;;;;;;19.17;12.95;;;15.00;41.00;;;;;;5098124;28;20062;-80
2022/03/21 11:54:29;;;;;;;18.33;14.50;;;15.10;41.50;;;;;;5081131;28;20057;-80
2022/03/21 11:56:58;;;;;;;21.25;14.90;;;15.20;38.10;;;;;;5097560;28;20031;-80
2022/03/21 11:59:33;;;;;;;20.30;14.60;;;15.00;36.80;;;;;;5080894;28;20046;-80
2022/03/21 12:01:59;;;;;;;19.88;15.23;;;15.00;37.70;;;;;;5097819;28;20043;-80
2022/03/21 12:04:25;;;;;;;19.20;15.35;;;15.20;40.00;;;;;;5097602;28;20039;-80
2022/03/21 12:06:56;;;;;;;18.02;13.45;;;15.20;37.70;;;;;;5080760;28;20045;-81
2022/03/21 12:09:22;;;;;;;17.92;13.02;;;15.50;40.40;;;;;;5080680;28;20040;-80
2022/03/21 12:11:48;;;;;;;17.02;13.02;;;15.50;36.70;;;;;;5097229;28;20039;-80
2022/03/21 12:14:20;;;;;;;15.70;12.35;;;15.50;37.10;;;;;;5080699;28;20441;-80
2022/03/21 12:17:01;;;;;;;19.63;14.43;;;15.30;35.40;;;;;;5080602;28;20151;-80
2022/03/21 12:19:48;;;;;;;17.13;13.35;;;15.20;36.60;;;;;;5097374;28;20545;-80
2022/03/21 12:22:43;;;;;;;18.58;13.23;;;15.50;38.00;;;;;;5096924;28;20048;-80
2022/03/21 12:25:11;;;;;;;17.63;13.73;;;15.70;36.30;;;;;;5066634;28;20046;-80
2022/03/21 12:27:40;;;;;;;18.10;14.02;;;16.00;37.70;;;;;;5080173;28;20042;-80
2022/03/21 12:30:20;;;;;;;16.23;13.27;;;16.00;37.40;;;;;;5080096;28;20122;-80
2022/03/21 12:32:47;;;;;;;17.80;14.10;;;15.80;34.50;;;;;;5097085;28;20079;-80
2022/03/21 12:35:31;;;;;;;18.35;13.48;;;15.60;34.80;;;;;;5080037;28;20046;-80
2022/03/21 12:38:21;;;;;;;17.58;14.43;;;15.70;36.10;;;;;;5097123;28;20039;-80
2022/03/21 12:40:47;;;;;;;19.80;14.23;;;15.80;37.00;;;;;;5080070;28;20036;-80
2022/03/21 12:43:22;;;;;;;18.35;13.95;;;16.00;36.80;;;;;;5096723;28;20043;-80
2022/03/21 12:45:50;;;;;;;19.65;14.70;;;16.10;37.10;;;;;;5096865;28;20075;-80
2022/03/21 12:48:17;;;;;;;17.95;14.40;;;16.00;37.70;;;;;;5096767;28;20054;-80
2022/03/21 12:50:47;;;;;;;19.75;14.38;;;16.20;38.00;;;;;;5063222;28;20096;-80
2022/03/21 12:53:18;;;;;;;24.25;15.68;;;16.40;37.40;;;;;;5096624;28;20112;-80
2022/03/21 12:56:00;;;;;;;18.08;14.23;;;16.40;37.70;;;;;;5096455;28;20118;-80
2022/03/21 12:58:26;;;;;;;15.68;13.13;;;16.60;38.30;;;;;;5065161;28;20039;-80